Time;durP1;ratioP1;P1;durP2;ratioP2;P2;SDS_P1;SDS_P2;PMS_P1;PMS_P2;Temp;Humidity;BMP_temperature;BMP_pressure;BME280_temperature;BME280_humidity;BME280_pressure;Samples;Min_cycle;Max_cycle;Signal;HPM_P1;HPM_P2
2023/06/23 00:02:01;;;;;;;1.00;0.90;;;;;;;22.99;84.36;99304.56;5114325;28;20058;-64
2023/06/23 00:04:31;;;;;;;5.85;1.27;;;;;;;23.00;84.48;99317.53;5114423;28;20130;-64
2023/06/23 00:07:00;;;;;;;;;;;;;;;23.01;84.31;99321.78;5114856;28;20043;-64
2023/06/23 00:09:30;;;;;;;3.47;2.28;;;;;;;23.01;84.48;99318.38;5114461;28;19931;-64
2023/06/23 00:12:00;;;;;;;3.58;1.30;;;;;;;23.01;84.49;99318.38;5114347;28;20141;-64
2023/06/23 00:14:29;;;;;;;1.98;0.82;;;;;;;23.04;84.51;99323.38;5114630;28;20032;-64
2023/06/23 00:16:58;;;;;;;0.60;0.60;;;;;;;23.05;84.42;99325.06;5114744;28;20044;-65
2023/06/23 00:19:31;;;;;;;3.60;2.17;;;;;;;23.12;84.26;99334.22;5114331;28;20040;-64
2023/06/23 00:22:02;;;;;;;2.10;1.15;;;;;;;23.13;84.16;99328.09;5114432;28;20542;-65
2023/06/23 00:24:34;;;;;;;1.08;0.70;;;;;;;23.20;84.25;99329.41;5114373;28;20141;-64
2023/06/23 00:27:03;;;;;;;1.52;0.77;;;;;;;23.24;84.19;99330.91;5113994;28;20043;-64
2023/06/23 00:29:32;;;;;;;4.20;1.92;;;;;;;23.26;84.30;99331.63;5112821;28;20073;-64
2023/06/23 00:32:02;;;;;;;0.77;0.77;;;;;;;23.33;84.28;99336.41;5113762;28;20044;-64
2023/06/23 00:34:31;;;;;;;1.27;1.17;;;;;;;23.28;84.20;99327.19;5112808;28;20044;-64
2023/06/23 00:37:00;;;;;;;6.40;1.65;;;;;;;23.29;84.32;99331.47;5114662;28;20089;-64
2023/06/23 00:39:29;;;;;;;1.60;1.50;;;;;;;23.35;84.26;99320.72;5116789;28;20516;-64
2023/06/23 00:42:05;;;;;;;1.02;0.93;;;;;;;23.34;84.30;99312.06;5117955;28;20078;-64
2023/06/23 00:44:37;;;;;;;2.33;1.25;;;;;;;23.35;84.23;99323.31;5100112;28;20047;-64
2023/06/23 00:47:08;;;;;;;2.15;1.33;;;;;;;23.34;84.05;99316.41;5116796;28;20094;-64
2023/06/23 00:49:38;;;;;;;1.75;1.65;;;;;;;23.26;83.84;99306.44;5118014;28;20051;-64
2023/06/23 00:52:08;;;;;;;2.10;1.05;;;;;;;23.24;83.87;99307.47;5118096;28;20104;-64
2023/06/23 00:54:38;;;;;;;5.28;2.65;;;;;;;23.23;83.79;99314.44;5116633;28;20139;-64
2023/06/23 00:57:10;;;;;;;0.77;0.68;;;;;;;23.24;83.54;99307.47;5117793;27;20044;-64
2023/06/23 00:59:39;;;;;;;0.75;0.75;;;;;;;23.24;83.64;99310.06;5118018;28;20417;-64
2023/06/23 01:02:08;;;;;;;0.80;0.80;;;;;;;23.27;83.52;99294.25;5116415;28;20703;-64
2023/06/23 01:04:37;;;;;;;2.13;1.27;;;;;;;23.27;83.38;99300.28;5117628;28;20043;-64
2023/06/23 01:07:19;;;;;;;1.67;1.50;;;;;;;23.33;83.35;99296.50;5117654;28;20047;-64
2023/06/23 01:09:59;;;;;;;6.65;1.08;;;;;;;23.36;83.55;99296.34;5117838;28;20389;-64
2023/06/23 01:12:38;;;;;;;0.95;0.93;;;;;;;23.36;83.62;99293.75;5117675;28;20097;-64
2023/06/23 01:15:14;;;;;;;5.68;2.47;;;;;;;23.37;83.70;99287.59;5116353;28;20132;-64
2023/06/23 01:17:51;;;;;;;1.50;1.40;;;;;;;23.41;83.56;99286.50;5116202;28;20044;-64
2023/06/23 01:20:27;;;;;;;1.00;0.90;;;;;;;23.51;83.56;99289.41;5117630;28;20060;-64
2023/06/23 01:23:16;;;;;;;1.83;1.45;;;;;;;23.54;83.57;99284.81;5117503;28;20515;-64
2023/06/23 01:25:55;;;;;;;3.40;2.22;;;;;;;23.66;83.49;99286.69;5117329;28;20074;-64
2023/06/23 01:28:43;;;;;;;6.82;1.77;;;;;;;23.93;82.93;99284.19;5116280;28;20047;-64
2023/06/23 01:31:17;;;;;;;1.70;1.60;;;;;;;24.04;81.41;99254.84;5115954;28;20511;-64
2023/06/23 01:33:50;;;;;;;1.02;0.93;;;;;;;24.32;80.63;99280.91;5115839;28;20043;-65
2023/06/23 01:36:28;;;;;;;2.13;1.38;;;;;;;24.38;80.18;99288.31;5115760;28;20047;-64
2023/06/23 01:39:03;;;;;;;1.48;1.38;;;;;;;24.49;79.73;99285.88;5116810;28;20124;-64
2023/06/23 01:41:43;;;;;;;6.65;1.58;;;;;;;24.51;79.36;99281.41;5116971;28;20048;-65
2023/06/23 01:44:17;;;;;;;2.20;1.40;;;;;;;24.65;79.20;99286.56;5115931;28;20048;-65
2023/06/23 01:46:52;;;;;;;1.67;1.27;;;;;;;24.63;78.76;99278.00;5117153;28;20040;-65
2023/06/23 01:49:27;;;;;;;4.03;1.88;;;;;;;24.67;78.98;99279.47;5116901;28;20058;-64
2023/06/23 01:51:57;;;;;;;2.33;1.92;;;;;;;24.64;79.53;99283.13;5115632;28;20047;-65
2023/06/23 01:54:29;;;;;;;1.30;1.20;;;;;;;24.57;79.86;99287.06;5115431;28;20409;-65
2023/06/23 01:57:00;;;;;;;1.67;1.58;;;;;;;24.49;80.65;99288.50;5116985;28;20046;-65
2023/06/23 01:59:33;;;;;;;2.20;1.55;;;;;;;24.46;80.75;99283.47;5115510;28;20067;-65
2023/06/23 02:02:04;;;;;;;1.45;1.23;;;;;;;24.45;80.67;99281.81;5116057;28;20043;-64
2023/06/23 02:04:35;;;;;;;2.60;1.98;;;;;;;24.43;80.84;99270.59;5115576;28;20085;-64
2023/06/23 02:07:07;;;;;;;2.75;1.40;;;;;;;24.44;81.26;99274.91;5115253;28;20047;-65
2023/06/23 02:09:38;;;;;;;1.85;1.40;;;;;;;24.41;81.36;99282.91;5115284;28;20036;-64
2023/06/23 02:12:08;;;;;;;12.73;2.20;;;;;;;24.36;81.74;99292.81;5115205;28;20093;-65
2023/06/23 02:14:41;;;;;;;1.85;1.40;;;;;;;24.34;81.94;99284.25;5116269;28;20131;-65
2023/06/23 02:17:11;;;;;;;0.93;0.70;;;;;;;24.34;82.09;99295.53;5116172;28;20047;-65
2023/06/23 02:19:43;;;;;;;2.30;1.77;;;;;;;24.36;82.24;99304.09;5116196;28;20059;-64
2023/06/23 02:22:17;;;;;;;2.85;1.92;;;;;;;24.38;82.01;99301.38;5116308;28;20044;-64
2023/06/23 02:24:47;;;;;;;4.25;2.15;;;;;;;24.37;82.25;99297.09;5116029;28;20044;-64
2023/06/23 02:27:19;;;;;;;1.33;1.00;;;;;;;24.33;82.28;99298.25;5116313;28;20046;-63
2023/06/23 02:29:51;;;;;;;2.33;2.13;;;;;;;24.32;82.35;99300.00;5116091;28;20048;-64
2023/06/23 02:32:20;;;;;;;4.32;2.50;;;;;;;24.33;82.39;99303.47;5116280;28;20051;-64
2023/06/23 02:34:49;;;;;;;3.85;1.73;;;;;;;24.36;82.14;99311.91;5116223;28;20040;-64
2023/06/23 02:37:23;;;;;;;1.88;1.70;;;;;;;24.38;82.06;99311.81;5116056;28;20043;-65
2023/06/23 02:39:58;;;;;;;2.15;1.50;;;;;;;24.38;82.17;99311.81;5114419;28;20039;-65
2023/06/23 02:42:33;;;;;;;2.20;1.58;;;;;;;24.39;81.80;99303.91;5116377;28;20044;-66
2023/06/23 02:45:10;;;;;;;2.13;1.85;;;;;;;24.44;81.93;99312.28;5115776;28;20048;-65
2023/06/23 02:47:42;;;;;;;1.65;1.33;;;;;;;24.49;81.78;99306.78;5115681;28;20050;-65
2023/06/23 02:50:13;;;;;;;2.15;1.63;;;;;;;24.56;80.96;99305.44;5114484;28;20119;-65
2023/06/23 02:52:46;;;;;;;1.85;1.52;;;;;;;24.57;81.20;99313.16;5115615;28;20054;-65
2023/06/23 02:55:20;;;;;;;1.92;1.70;;;;;;;24.54;81.05;99307.31;5115501;28;20039;-64
2023/06/23 02:57:52;;;;;;;1.55;1.15;;;;;;;24.43;81.21;99301.91;5115416;28;20063;-65
2023/06/23 03:00:29;;;;;;;3.17;1.83;;;;;;;24.38;81.59;99285.72;5115735;28;20468;-64
2023/06/23 03:03:00;;;;;;;4.07;2.25;;;;;;;24.34;81.25;99289.47;5114913;28;20051;-64
2023/06/23 03:05:29;;;;;;;18.02;3.13;;;;;;;24.26;81.60;99287.34;5115198;28;20040;-64
2023/06/23 03:08:00;;;;;;;1.35;1.00;;;;;;;24.19;81.84;99286.03;5114002;28;20044;-65
2023/06/23 03:10:29;;;;;;;2.35;1.42;;;;;;;24.16;82.10;99285.41;5114941;28;20126;-64
2023/06/23 03:13:00;;;;;;;1.27;0.90;;;;;;;24.11;82.30;99279.66;5115112;28;20035;-64
2023/06/23 03:15:31;;;;;;;3.30;2.05;;;;;;;24.06;82.41;99284.28;5115128;28;20067;-65
2023/06/23 03:18:08;;;;;;;3.03;1.50;;;;;;;24.00;82.59;99290.69;5115206;28;20500;-64
2023/06/23 03:20:41;;;;;;;1.95;1.35;;;;;;;23.99;82.51;99284.63;5114986;28;20060;-64
2023/06/23 03:23:13;;;;;;;1.00;0.90;;;;;;;24.02;82.63;99292.28;5114187;28;20122;-64
2023/06/23 03:25:46;;;;;;;1.20;1.10;;;;;;;24.02;82.64;99287.06;5113681;28;20043;-64
2023/06/23 03:28:21;;;;;;;1.73;1.63;;;;;;;23.98;82.70;99303.84;5114185;28;20047;-64
2023/06/23 03:30:55;;;;;;;5.78;1.92;;;;;;;23.92;82.58;99314.63;5115157;28;20055;-64
2023/06/23 03:33:29;;;;;;;1.60;1.23;;;;;;;23.93;82.58;99321.53;5113841;28;20116;-64
2023/06/23 03:36:06;;;;;;;3.42;1.85;;;;;;;23.95;82.84;99319.66;5114785;28;20048;-64
2023/06/23 03:38:54;;;;;;;1.00;0.98;;;;;;;23.95;82.82;99321.44;5114893;27;20044;-64
2023/06/23 03:41:25;;;;;;;2.05;1.45;;;;;;;23.99;82.82;99318.53;5114584;28;20040;-64
2023/06/23 03:43:59;;;;;;;1.27;1.00;;;;;;;24.02;83.12;99315.75;5114579;28;20409;-64
2023/06/23 03:46:38;;;;;;;2.35;1.35;;;;;;;24.00;83.31;99301.97;5114523;28;20047;-64
2023/06/23 03:49:09;;;;;;;1.10;1.00;;;;;;;23.99;83.40;99295.06;5114459;28;20047;-64
2023/06/23 03:51:43;;;;;;;2.53;1.50;;;;;;;24.02;83.81;99293.22;5114526;28;20116;-64
2023/06/23 03:54:16;;;;;;;1.95;1.75;;;;;;;24.09;83.79;99294.56;5114513;28;20105;-64
2023/06/23 03:56:49;;;;;;;3.55;2.53;;;;;;;24.14;83.46;99282.88;5114632;27;20067;-64
2023/06/23 03:59:21;;;;;;;5.72;2.63;;;;;;;24.22;83.33;99278.03;5114914;28;20035;-64
2023/06/23 04:01:53;;;;;;;2.65;1.83;;;;;;;24.30;83.14;99278.41;5114351;28;20074;-64
2023/06/23 04:04:24;;;;;;;1.60;1.33;;;;;;;24.34;82.93;99273.81;5114704;28;20067;-65
2023/06/23 04:06:55;;;;;;;3.38;2.20;;;;;;;24.37;82.97;99278.84;5114257;28;20039;-65
2023/06/23 04:09:27;;;;;;;1.30;1.00;;;;;;;24.40;82.63;99269.03;5114114;28;20052;-64
2023/06/23 04:11:58;;;;;;;1.67;1.38;;;;;;;24.48;82.56;99276.38;5114121;28;20096;-65
2023/06/23 04:14:29;;;;;;;2.33;2.00;;;;;;;24.54;82.35;99286.44;5113237;28;20044;-64
2023/06/23 04:17:02;;;;;;;4.32;1.90;;;;;;;24.51;82.36;99297.06;5114087;28;20039;-64
2023/06/23 04:19:34;;;;;;;2.67;2.10;;;;;;;24.51;82.45;99299.69;5114100;28;20038;-64
2023/06/23 04:22:05;;;;;;;2.50;1.90;;;;;;;24.51;82.95;99308.34;5114412;28;20449;-63
2023/06/23 04:24:37;;;;;;;2.70;1.88;;;;;;;24.53;83.10;99305.63;5114420;28;20046;-64
2023/06/23 04:27:07;;;;;;;3.38;2.55;;;;;;;24.53;82.77;99316.06;5114051;28;20092;-64
2023/06/23 04:29:38;;;;;;;1.55;1.45;;;;;;;24.54;83.03;99317.75;5113983;28;20048;-64
2023/06/23 04:32:10;;;;;;;1.98;1.55;;;;;;;24.56;83.20;99311.50;5113930;28;20048;-64
2023/06/23 04:34:40;;;;;;;4.75;1.75;;;;;;;24.61;83.31;99313.81;5114028;28;20047;-64
2023/06/23 04:37:12;;;;;;;;;;;;;;;24.63;83.15;99306.72;5114296;28;20051;-64
2023/06/23 04:39:48;;;;;;;15.55;3.13;;;;;;;24.62;83.38;99312.88;5114054;28;20010;-64
2023/06/23 04:42:22;;;;;;;1.60;1.33;;;;;;;24.65;83.29;99325.72;5113805;28;20055;-64
2023/06/23 04:45:00;;;;;;;2.40;1.52;;;;;;;24.67;83.28;99334.28;5114167;28;20055;-64
2023/06/23 04:47:37;;;;;;;9.70;2.47;;;;;;;24.68;83.60;99330.75;5113797;28;20054;-64
2023/06/23 04:50:11;;;;;;;1.92;1.48;;;;;;;24.72;83.19;99337.44;5112702;28;20044;-64
2023/06/23 04:52:46;;;;;;;1.75;1.63;;;;;;;24.79;83.38;99341.38;5113769;28;20055;-64
2023/06/23 04:55:18;;;;;;;1.63;1.45;;;;;;;24.79;83.76;99344.00;5113732;28;20127;-65
2023/06/23 04:57:55;;;;;;;1.95;1.58;;;;;;;24.82;83.94;99353.41;5113814;28;20043;-64
2023/06/23 05:00:25;;;;;;;3.22;1.52;;;;;;;24.80;84.20;99340.44;5113882;28;20400;-64
2023/06/23 05:02:57;;;;;;;7.20;2.33;;;;;;;24.79;84.26;99341.38;5113877;28;20083;-64
2023/06/23 05:05:30;;;;;;;3.28;2.15;;;;;;;24.82;83.86;99349.03;5113891;28;20071;-64
2023/06/23 05:08:02;;;;;;;2.53;2.13;;;;;;;24.79;84.00;99346.59;5113674;28;20048;-64
2023/06/23 05:10:33;;;;;;;4.43;2.92;;;;;;;24.79;83.91;99341.38;5113629;28;20143;-64
2023/06/23 05:13:05;;;;;;;3.67;2.45;;;;;;;24.65;83.73;99317.91;5113842;28;20584;-64
2023/06/23 05:15:34;;;;;;;4.07;2.08;;;;;;;24.79;83.55;99332.69;5113513;28;20055;-64
2023/06/23 05:18:07;;;;;;;13.48;1.77;;;;;;;24.74;83.78;99330.34;5113381;28;20046;-64
2023/06/23 05:20:40;;;;;;;1.20;1.10;;;;;;;24.79;84.01;99341.38;5113492;28;20043;-64
2023/06/23 05:23:13;;;;;;;2.58;2.05;;;;;;;24.84;84.07;99341.91;5113427;28;20067;-64
2023/06/23 05:25:45;;;;;;;3.60;2.17;;;;;;;24.89;84.10;99339.84;5116331;28;20105;-64
2023/06/23 05:28:17;;;;;;;2.90;2.05;;;;;;;24.97;84.04;99342.81;5116714;28;20385;-64
2023/06/23 05:30:47;;;;;;;3.15;2.10;;;;;;;25.06;84.10;99357.88;5117155;27;20040;-64
2023/06/23 05:33:20;;;;;;;2.20;1.42;;;;;;;25.14;84.04;99350.41;5117258;28;20051;-64
2023/06/23 05:35:54;;;;;;;2.05;1.65;;;;;;;25.22;83.67;99355.94;5117358;28;20093;-64
2023/06/23 05:38:24;;;;;;;2.35;1.80;;;;;;;25.29;83.12;99354.59;5116941;28;20046;-64
2023/06/23 05:40:54;;;;;;;1.88;1.45;;;;;;;25.35;82.77;99357.75;5117184;28;20050;-64
2023/06/23 05:43:23;;;;;;;13.98;3.20;;;;;;;25.37;83.02;99366.31;5117121;28;20042;-64
2023/06/23 05:45:54;;;;;;;1.33;1.20;;;;;;;25.49;82.31;99370.75;5116822;28;20051;-64
2023/06/23 05:48:29;;;;;;;3.40;2.63;;;;;;;25.58;82.66;99370.19;5117069;27;20051;-64
2023/06/23 05:51:01;;;;;;;5.20;2.20;;;;;;;25.67;82.58;99373.00;5106143;28;20100;-69
2023/06/23 05:53:31;;;;;;;3.95;2.65;;;;;;;25.74;82.54;99376.03;5096621;28;20117;-64
2023/06/23 05:56:05;;;;;;;6.03;1.95;;;;;;;25.81;82.54;99370.28;5096553;28;20054;-65
2023/06/23 05:58:41;;;;;;;3.15;1.77;;;;;;;25.84;82.36;99377.09;5096700;28;20043;-65
2023/06/23 06:01:15;;;;;;;2.13;1.42;;;;;;;25.86;82.19;99375.22;5109457;28;20047;-65
2023/06/23 06:03:49;;;;;;;3.30;1.58;;;;;;;25.89;82.22;99364.53;5096431;28;20079;-65
2023/06/23 06:06:20;;;;;;;3.08;1.63;;;;;;;25.90;81.40;99353.13;5095219;28;20517;-65
2023/06/23 06:08:54;;;;;;;1.20;1.10;;;;;;;25.78;81.45;99340.88;5095973;28;20040;-64
2023/06/23 06:11:25;;;;;;;4.45;2.97;;;;;;;25.96;81.60;99365.78;5104461;28;20040;-65
2023/06/23 06:13:56;;;;;;;1.63;1.33;;;;;;;25.99;81.18;99360.31;5096291;28;20093;-65
2023/06/23 06:16:26;;;;;;;3.90;2.47;;;;;;;26.02;81.39;99352.28;5096097;28;20509;-65
2023/06/23 06:19:00;;;;;;;3.58;2.20;;;;;;;26.13;81.61;99368.09;5096028;28;20040;-65
2023/06/23 06:21:32;;;;;;;1.73;1.30;;;;;;;26.21;81.13;99370.19;5109903;28;20493;-65
2023/06/23 06:24:02;;;;;;;3.85;2.10;;;;;;;26.32;80.90;99358.00;5113751;28;20446;-65
2023/06/23 06:26:31;;;;;;;22.08;15.98;;;;;;;26.43;80.59;99360.72;5116233;28;20067;-65
2023/06/23 06:29:04;;;;;;;5.68;4.35;;;;;;;26.57;80.50;99360.59;5115939;28;20043;-64
2023/06/23 06:31:34;;;;;;;2.92;2.00;;;;;;;26.68;79.96;99359.00;5105706;28;20043;-65
2023/06/23 06:34:07;;;;;;;2.55;1.92;;;;;;;26.80;79.60;99361.59;5096564;28;20040;-65
2023/06/23 06:36:38;;;;;;;1.92;1.75;;;;;;;26.90;79.38;99364.38;5094795;28;20052;-64
2023/06/23 06:39:08;;;;;;;2.90;1.92;;;;;;;27.04;79.34;99362.41;5101766;28;20054;-65
2023/06/23 06:41:38;;;;;;;1.95;1.75;;;;;;;27.08;78.59;99363.03;5113574;28;20078;-65
2023/06/23 06:44:09;;;;;;;3.05;2.13;;;;;;;27.19;78.42;99370.94;5112643;28;20070;-65
2023/06/23 06:46:39;;;;;;;;;;;;;;;27.32;78.05;99369.09;5105086;28;20043;-65
2023/06/23 06:49:10;;;;;;;1.60;1.45;;;;;;;27.41;77.54;99372.81;5095109;28;19927;-65
2023/06/23 06:51:42;;;;;;;3.60;2.13;;;;;;;27.48;76.62;99361.78;5095341;28;20048;-65
2023/06/23 06:54:11;;;;;;;2.78;2.15;;;;;;;27.55;75.92;99352.50;5095356;28;20048;-65
2023/06/23 06:56:42;;;;;;;4.18;3.22;;;;;;;27.61;75.41;99361.69;5101313;28;20497;-66
2023/06/23 06:59:11;;;;;;;;;;;;;;;27.54;74.29;99366.56;5114839;28;20405;-67
2023/06/23 07:01:40;;;;;;;1.40;1.17;;;;;;;27.53;74.09;99372.75;5115581;28;19973;-65
2023/06/23 07:04:11;;;;;;;2.00;1.73;;;;;;;27.65;74.18;99374.44;5115204;28;20044;-67
2023/06/23 07:06:40;;;;;;;3.50;2.30;;;;;;;27.75;74.36;99375.44;5093745;28;20044;-64
2023/06/23 07:09:09;;;;;;;1.73;1.50;;;;;;;27.75;73.83;99375.44;5095080;28;20123;-64
2023/06/23 07:11:38;;;;;;;30.90;3.55;;;;;;;27.86;74.36;99383.31;5095017;28;20120;-65
2023/06/23 07:14:06;;;;;;;2.88;1.80;;;;;;;27.99;74.18;99379.75;5094682;28;20075;-65
2023/06/23 07:16:35;;;;;;;3.70;2.38;;;;;;;28.03;74.21;99383.81;5093884;28;20051;-65
2023/06/23 07:19:04;;;;;;;2.15;1.55;;;;;;;27.93;74.04;99389.75;5094545;28;20122;-64
2023/06/23 07:21:35;;;;;;;3.72;2.38;;;;;;;27.87;74.46;99392.88;5094982;28;20097;-64
2023/06/23 07:24:04;;;;;;;1.65;1.55;;;;;;;27.79;74.55;99387.34;5095432;28;20050;-64
2023/06/23 07:26:33;;;;;;;1.17;1.08;;;;;;;27.64;74.81;99399.00;5094074;28;20044;-64
2023/06/23 07:29:02;;;;;;;3.40;2.53;;;;;;;27.54;75.00;99403.28;5094394;28;20101;-65
2023/06/23 07:31:31;;;;;;;4.43;2.33;;;;;;;27.43;74.89;99408.47;5094469;28;20040;-64
2023/06/23 07:34:00;;;;;;;2.47;1.88;;;;;;;27.37;74.97;99403.66;5094295;28;20130;-64
2023/06/23 07:36:29;;;;;;;2.95;2.65;;;;;;;27.35;75.22;99397.72;5099755;28;20062;-65
2023/06/23 07:38:59;;;;;;;2.60;2.10;;;;;;;27.38;75.64;99394.06;5103124;28;20085;-64
2023/06/23 07:41:28;;;;;;;1.63;1.52;;;;;;;27.52;75.40;99389.44;5102548;28;20058;-65
2023/06/23 07:43:57;;;;;;;2.55;2.10;;;;;;;27.74;74.84;99386.88;5114502;28;20065;-65
2023/06/23 07:46:26;;;;;;;2.20;1.60;;;;;;;28.02;74.94;99377.78;5114598;28;20143;-65
2023/06/23 07:48:55;;;;;;;;;;;;;;;28.21;74.39;99382.44;5109717;28;20062;-64
2023/06/23 07:51:24;;;;;;;2.42;1.73;;;;;;;28.34;73.87;99383.13;5102624;28;19927;-64
2023/06/23 07:53:53;;;;;;;2.35;2.03;;;;;;;28.53;73.24;99372.84;5114374;28;20123;-65
2023/06/23 07:56:36;;;;;;;3.03;2.08;;;;;;;28.72;72.58;99386.25;5109998;28;20036;-65
2023/06/23 07:59:05;;;;;;;3.70;2.63;;;;;;;28.77;71.94;99381.41;5096100;28;20044;-64
2023/06/23 08:01:34;;;;;;;4.45;3.05;;;;;;;28.76;70.91;99369.25;5093973;28;20064;-65
2023/06/23 08:04:03;;;;;;;5.18;2.20;;;;;;;28.79;71.11;99369.03;5092921;28;20513;-65
2023/06/23 08:06:32;;;;;;;1.45;1.25;;;;;;;28.91;71.04;99368.03;5092840;28;20055;-67
2023/06/23 08:09:01;;;;;;;1.95;1.67;;;;;;;29.07;70.60;99381.59;5104762;28;20151;-64
2023/06/23 08:11:30;;;;;;;4.15;2.25;;;;;;;29.05;69.83;99370.38;5092471;28;20048;-64
2023/06/23 08:14:01;;;;;;;5.72;2.30;;;;;;;29.09;69.28;99373.56;5093724;28;20055;-64
2023/06/23 08:16:30;;;;;;;4.10;2.45;;;;;;;29.08;69.23;99375.34;5093389;28;20048;-64
2023/06/23 08:18:59;;;;;;;2.50;1.50;;;;;;;29.09;68.36;99377.03;5093540;28;20075;-65
2023/06/23 08:21:27;;;;;;;3.67;2.13;;;;;;;29.23;67.89;99375.13;5093705;28;20514;-64
2023/06/23 08:23:56;;;;;;;1.55;1.40;;;;;;;29.43;67.66;99380.38;5093670;28;20040;-65
2023/06/23 08:26:25;;;;;;;;;;;;;;;29.50;66.65;99391.22;5094043;28;20072;-64
2023/06/23 08:28:54;;;;;;;2.28;2.08;;;;;;;29.58;66.15;99389.66;5093444;28;19920;-65
2023/06/23 08:31:24;;;;;;;2.63;1.63;;;;;;;29.65;65.94;99395.22;5092533;28;20402;-65
2023/06/23 08:33:53;;;;;;;3.72;2.60;;;;;;;29.47;65.82;99392.31;5093658;28;20052;-64
2023/06/23 08:36:22;;;;;;;2.10;1.92;;;;;;;29.27;65.88;99389.69;5092875;28;20039;-66
2023/06/23 08:38:51;;;;;;;7.70;1.85;;;;;;;29.14;65.72;99390.66;5093297;28;20058;-66
2023/06/23 08:41:23;;;;;;;1.80;1.40;;;;;;;29.07;65.30;99397.38;5094104;28;20481;-64
2023/06/23 08:43:54;;;;;;;1.60;1.38;;;;;;;29.03;65.47;99398.56;5092671;28;20097;-65
2023/06/23 08:46:32;;;;;;;2.53;1.42;;;;;;;29.08;65.79;99404.28;5100204;28;20134;-65
2023/06/23 08:49:23;;;;;;;8.45;1.83;;;;;;;29.27;65.68;99400.19;5093326;28;20048;-65
2023/06/23 08:51:53;;;;;;;2.80;2.13;;;;;;;29.32;65.44;99417.28;5093894;28;20040;-65
2023/06/23 08:54:24;;;;;;;1.48;1.25;;;;;;;29.37;65.69;99406.38;5093488;28;20056;-65
2023/06/23 08:56:53;;;;;;;2.70;1.52;;;;;;;29.39;65.37;99409.72;5105823;28;20032;-65
2023/06/23 08:59:22;;;;;;;1.20;1.00;;;;;;;29.33;64.85;99420.72;5114900;28;20039;-65
2023/06/23 09:01:52;;;;;;;2.53;2.10;;;;;;;29.23;64.66;99419.81;5102460;28;20040;-65
2023/06/23 09:04:21;;;;;;;10.60;1.50;;;;;;;28.99;64.89;99402.41;5097151;28;20047;-65
2023/06/23 09:06:50;;;;;;;1.40;1.30;;;;;;;29.07;65.23;99431.53;5100441;28;20040;-65
2023/06/23 09:09:20;;;;;;;1.40;1.30;;;;;;;29.01;65.01;99439.09;5097982;28;20554;-65
2023/06/23 09:11:49;;;;;;;1.67;1.55;;;;;;;28.90;64.74;99445.19;5098058;28;20032;-66
2023/06/23 09:14:19;;;;;;;1.08;0.77;;;;;;;28.86;64.62;99445.56;5108358;28;20048;-65
2023/06/23 09:16:49;;;;;;;2.38;1.42;;;;;;;28.89;64.69;99443.50;5097108;28;20048;-65
2023/06/23 09:19:20;;;;;;;1.13;0.90;;;;;;;28.90;64.08;99439.94;5096933;28;20051;-65
2023/06/23 09:21:50;;;;;;;2.03;0.95;;;;;;;28.96;63.89;99434.19;5097368;28;20115;-65
2023/06/23 09:24:19;;;;;;;2.95;1.25;;;;;;;28.99;63.29;99444.44;5102301;28;20567;-65
2023/06/23 09:26:50;;;;;;;1.38;1.10;;;;;;;29.03;61.88;99440.63;5115360;28;20055;-65
2023/06/23 09:29:21;;;;;;;1.90;1.42;;;;;;;29.05;61.40;99443.97;5117608;27;20044;-65
2023/06/23 09:31:52;;;;;;;0.80;0.80;;;;;;;29.10;60.78;99436.56;5117404;28;20077;-66
2023/06/23 09:34:27;;;;;;;1.00;0.90;;;;;;;29.23;60.09;99446.13;5115546;28;20126;-65
2023/06/23 09:37:06;;;;;;;0.80;0.80;;;;;;;29.41;58.80;99452.50;5116022;28;20036;-65
2023/06/23 09:39:36;;;;;;;0.73;0.73;;;;;;;29.77;59.10;99446.88;5116642;28;20063;-65
2023/06/23 09:42:08;;;;;;;1.30;1.20;;;;;;;30.05;59.15;99440.94;5117508;28;20044;-65
2023/06/23 09:44:40;;;;;;;1.45;1.00;;;;;;;30.38;59.24;99442.50;5117282;27;20123;-65
2023/06/23 09:47:09;;;;;;;0.75;0.65;;;;;;;30.52;58.08;99443.97;5110460;28;20452;-65
2023/06/23 09:49:40;;;;;;;0.90;0.85;;;;;;;30.55;59.04;99430.56;5096345;28;20206;-65
2023/06/23 09:52:12;;;;;;;3.55;1.00;;;;;;;30.52;57.74;99441.34;5096455;28;20044;-65
2023/06/23 09:54:42;;;;;;;2.25;1.40;;;;;;;30.36;58.20;99455.00;5096701;28;20083;-65
2023/06/23 09:57:14;;;;;;;0.82;0.80;;;;;;;30.26;58.32;99457.53;5112686;28;20040;-66
2023/06/23 09:59:45;;;;;;;0.57;0.57;;;;;;;30.19;58.23;99453.75;5115299;28;20547;-65
2023/06/23 10:02:22;;;;;;;0.55;0.55;;;;;;;30.29;58.00;99449.38;5116877;28;20067;-65
2023/06/23 10:05:00;;;;;;;0.85;0.80;;;;;;;30.58;58.45;99448.69;5116537;27;20048;-66
2023/06/23 10:07:31;;;;;;;0.95;0.93;;;;;;;30.70;57.43;99447.63;5115340;28;20509;-65
2023/06/23 10:10:04;;;;;;;1.10;1.00;;;;;;;30.80;57.64;99433.53;5116210;28;20040;-65
2023/06/23 10:12:53;;;;;;;3.25;1.65;;;;;;;30.84;57.45;99442.81;5116976;28;20073;-65
2023/06/23 10:15:24;;;;;;;;;;;;;;;30.52;57.08;99443.00;5115359;28;20067;-65
2023/06/23 10:17:54;;;;;;;0.95;0.77;;;;;;;30.47;57.29;99449.66;5115378;28;19923;-66
2023/06/23 10:20:24;;;;;;;2.92;1.80;;;;;;;30.39;57.38;99450.31;5116188;28;20043;-65
2023/06/23 10:22:56;;;;;;;1.30;1.15;;;;;;;30.40;57.22;99446.69;5116164;28;20044;-66
2023/06/23 10:25:27;;;;;;;1.05;0.93;;;;;;;30.58;57.29;99446.06;5113663;28;20379;-65
2023/06/23 10:27:58;;;;;;;1.83;1.17;;;;;;;30.69;56.96;99446.00;5102120;28;20044;-66
2023/06/23 10:30:29;;;;;;;1.02;0.95;;;;;;;30.82;56.57;99441.28;5095943;28;20493;-65
2023/06/23 10:33:00;;;;;;;1.77;1.15;;;;;;;30.96;56.47;99444.41;5096075;28;20056;-66
2023/06/23 10:35:34;;;;;;;3.35;1.50;;;;;;;31.14;57.19;99423.50;5095810;28;20048;-66
2023/06/23 10:38:08;;;;;;;1.58;1.20;;;;;;;31.30;55.74;99436.97;5100469;28;20122;-66
2023/06/23 10:40:44;;;;;;;0.50;0.50;;;;;;;31.29;54.67;99450.31;5115387;28;20512;-65
2023/06/23 10:43:14;;;;;;;2.75;1.63;;;;;;;31.40;54.47;99448.38;5116171;27;20472;-66
2023/06/23 10:45:44;;;;;;;1.40;1.00;;;;;;;31.49;54.75;99442.28;5114311;28;20085;-66
2023/06/23 10:48:13;;;;;;;3.17;2.30;;;;;;;31.58;54.12;99457.28;5099277;28;20044;-66
2023/06/23 10:50:47;;;;;;;1.17;1.08;;;;;;;31.64;54.00;99456.72;5096714;28;20105;-69
2023/06/23 10:53:18;;;;;;;2.35;1.20;;;;;;;31.61;53.66;99440.31;5099124;28;20044;-66
2023/06/23 10:55:48;;;;;;;1.30;0.98;;;;;;;31.66;54.32;99444.22;5116108;28;20047;-66
2023/06/23 10:58:50;;;;;;;2.25;1.58;;;;;;;31.79;54.15;99443.94;5115753;28;20043;-66
2023/06/23 11:01:20;;;;;;;2.60;1.30;;;;;;;31.82;53.22;99437.53;5105072;28;20058;-66
2023/06/23 11:03:53;;;;;;;1.77;1.17;;;;;;;31.89;52.97;99438.63;5095250;28;20044;-66
2023/06/23 11:06:37;;;;;;;0.88;0.85;;;;;;;31.92;52.50;99438.34;5095516;28;20047;-67
2023/06/23 11:09:26;;;;;;;3.60;0.98;;;;;;;31.97;52.62;99436.09;5095203;28;20048;-66
2023/06/23 11:12:00;;;;;;;1.33;1.05;;;;;;;31.90;52.33;99419.16;5096171;28;20078;-65
2023/06/23 11:14:29;;;;;;;1.10;0.93;;;;;;;32.05;52.42;99433.63;5097744;28;20065;-65
2023/06/23 11:16:59;;;;;;;1.35;1.25;;;;;;;32.07;51.68;99429.03;5104439;28;20478;-65
2023/06/23 11:19:28;;;;;;;1.23;1.05;;;;;;;32.02;52.26;99433.91;5097114;28;20090;-65
2023/06/23 11:22:10;;;;;;;1.23;0.95;;;;;;;31.95;51.55;99435.41;5112868;28;20146;-66
2023/06/23 11:24:52;;;;;;;0.82;0.77;;;;;;;32.07;52.02;99434.31;5105541;28;20044;-65
2023/06/23 11:27:21;;;;;;;2.17;1.73;;;;;;;32.04;51.62;99435.41;5099899;28;20093;-69
2023/06/23 11:30:18;;;;;;;2.00;1.63;;;;;;;32.20;52.54;99421.63;5111240;28;20040;-66
2023/06/23 11:33:18;;;;;;;1.10;0.98;;;;;;;32.04;51.29;99422.22;5104075;28;20036;-66
2023/06/23 11:35:48;;;;;;;1.00;0.93;;;;;;;32.09;51.47;99424.44;5109398;28;20048;-66
2023/06/23 11:38:20;;;;;;;1.20;0.90;;;;;;;32.00;51.25;99414.72;5093530;28;20428;-65
2023/06/23 11:40:50;;;;;;;0.85;0.77;;;;;;;32.00;51.41;99420.84;5094131;28;20532;-66
2023/06/23 11:43:19;;;;;;;2.53;1.38;;;;;;;32.16;51.02;99420.22;5094481;28;20078;-65
2023/06/23 11:45:57;;;;;;;0.98;0.80;;;;;;;32.38;50.76;99415.44;5101239;28;20048;-65
2023/06/23 11:48:28;;;;;;;0.65;0.65;;;;;;;32.24;48.96;99410.63;5114821;28;20416;-66
2023/06/23 11:50:58;;;;;;;0.50;0.50;;;;;;;32.31;49.30;99416.16;5114540;28;20122;-65
2023/06/23 11:53:29;;;;;;;0.60;0.60;;;;;;;32.36;49.92;99406.81;5114798;28;20050;-65
2023/06/23 11:55:58;;;;;;;0.93;0.93;;;;;;;32.51;49.51;99419.59;5112639;28;20036;-67
2023/06/23 11:58:31;;;;;;;3.50;0.90;;;;;;;32.69;50.07;99423.09;5113508;28;20449;-66